Autryville, NC

6:25 PM EDT on July 30, 2016 (GMT -0400)
Big Creek | | Change Station
Active Advisory: Heat Advisory

Elev 98 ft 35.04 °N, 78.67 °W | Updated 3 seconds ago

Clear
Clear
95.4 °F
Feels Like 105 °F
N
2.9
Wind Variable Wind from SW
Gusts 8.0 mph

Today
High -- | Low -- °F
--% Chance of Precip.
Yesterday
High -- | Low -- °F
Precip. -- in
Pressure 29.92 in
Visibility 10.0 miles
Clouds Clear
Heat Index 105 °F
Dew Point 73 °F
Humidity 49%
Rainfall 0.00 in
Snow Depth Not available.
6:22 AM 8:18 PM
Waning Crescent, 10% visible
METAR KCTZ 302200Z AUTO 19004KT 10SM CLR 35/23 A2992 RMK AO2 T03520231
Pressure 29.92 in
Visibility 10.0 miles
Clouds Clear
Heat Index 105 °F
Dew Point 73 °F
Humidity 49%
Rainfall 0.00 in
Snow Depth Not available.
6:22 AM 8:18 PM
Waning Crescent, 10% visible
METAR KCTZ 302200Z AUTO 19004KT 10SM CLR 35/23 A2992 RMK AO2 T03520231

10-Day Weather Forecast

Almanac

Astronomy

Jul. 30, 2016 Rise Set
Actual Time
Civil Twilight
Nautical Twilight
Astronomical Twilight
Moon
Length of Visible Light
Length of Day
Tomorrow will be .
, % of the Moon is Illuminated

Today's Extremes

State Highs State Lows

Community

WunderPhotos

Upload Photos

1,928,663 photos uploaded!

WunderBlog® & News

Nearby

Air Quality

  Air Quality AQ Index Pollutant
Not available.

Snow Depth

Station Depth Elevation

Earthquake Activity

City Distance Mag. Time & Date
Minimum magnitude displayed is 2.5.

Coastal Water Temperatures

Place Temperature

Stations

Nearby Weather Stations

Station Location Temp. Windchill Dew Point Humidity Wind Precip. Elev Updated Type
                   

Watches & Warnings

Heat Advisory
Issued: 12:20 PM EDT Jul. 30, 2016 – National Weather Service

... Heat advisory in effect until 8 PM EDT this evening...

The National Weather Service in Raleigh has issued a heat
advisory... which is in effect until 8 PM EDT this evening.

* Temperature... highs will be in the mid to upper 90s.

* Heat indices... 105 to 109 degrees.|

* Impacts... the accumulative effects of the heat and humidity will
lead to an increased risk of heat related illnesses...
especially among vulnerable individuals such as the sick... the
elderly... those exerting themselves outdoors... and those
without air conditioning.

Precautionary/preparedness actions...

A heat advisory means that a period of hot temperatures is
expected. Hot temperatures and high humidity will create a
situation in which heat illnesses are possible. Drink plenty of
fluids, stay in an air-conditioned room, stay out of the sun, and
check up on relatives and neighbors.